This is the latest recevied weather packets stored in our database for station/object N3TJJ-2. If no packets are shown the sender has not sent any weather packets the latest 1 day(s).
| Time | Temp. | Humidity | Pressure | Rain* | Wind** | Luminosity | Snow |
|---|---|---|---|---|---|---|---|
| 1778027721 | 22.22° C | 50% | 1009.7 hPa | 0 mm | 2.24 m/s, 26° | - | - |
| 1778027355 | 22.78° C | 49% | 1009.7 hPa | 0 mm | 2.24 m/s, 30° | - | - |
| 1778026996 | 22.78° C | 48% | 1009.7 hPa | 0 mm | 2.24 m/s, 39° | - | - |
| 1778026641 | 22.78° C | 47% | 1009.6 hPa | 0 mm | 4.02 m/s, 41° | - | - |
| 1778026276 | 23.33° C | 47% | 1009.6 hPa | 0 mm | 3.13 m/s, 34° | - | - |
| 1778025920 | 23.33° C | 47% | 1009.6 hPa | 0 mm | 2.24 m/s, 26° | - | - |
| 1778025556 | 23.33° C | 46% | 1009.6 hPa | 0 mm | 3.13 m/s, 32° | - | - |
| 1778025204 | 23.33° C | 46% | 1009.5 hPa | 0 mm | 4.02 m/s, 46° | - | - |
| 1778024840 | 23.89° C | 46% | 1009.4 hPa | 0 mm | 3.13 m/s, 42° | - | - |
| 1778024476 | 23.89° C | 46% | 1009.5 hPa | 0 mm | 3.58 m/s, 48° | - | - |
| 1778024118 | 23.89° C | 46% | 1009.3 hPa | 0 mm | 3.58 m/s, 40° | - | - |
| 1778023756 | 23.89° C | 46% | 1009.2 hPa | 0 mm | 3.13 m/s, 41° | - | - |
| 1778023396 | 23.89° C | 46% | 1009.1 hPa | 0 mm | 4.02 m/s, 52° | - | - |
| 1778023035 | 23.89° C | 47% | 1009.1 hPa | 0 mm | 3.13 m/s, 39° | - | - |
| 1778022695 | 24.44° C | 47% | 1009.1 hPa | 0 mm | 3.58 m/s, 31° | - | - |
| 1778022318 | 24.44° C | 47% | 1009.1 hPa | 0 mm | 3.58 m/s, 33° | - | - |
| 1778021955 | 25° C | 46% | 1009.1 hPa | 0 mm | 3.13 m/s, 32° | - | - |
| 1778021596 | 25° C | 46% | 1009.1 hPa | 0 mm | 3.58 m/s, 40° | - | - |
| 1778021254 | 25.56° C | 45% | 1009.1 hPa | 0 mm | 3.58 m/s, 40° | - | - |
| 1778020896 | 25.56° C | 44% | 1009 hPa | 0 mm | 4.92 m/s, 44° | - | - |
| 1778020522 | 25.56° C | 44% | 1009 hPa | 0 mm | 4.47 m/s, 43° | - | - |
| 1778020158 | 25.56° C | 44% | 1009.1 hPa | 0 mm | 4.92 m/s, 34° | - | - |
| 1778019795 | 25.56° C | 44% | 1009.1 hPa | 0 mm | 5.36 m/s, 46° | - | - |
| 1778019436 | 26.11° C | 43% | 1009 hPa | 0 mm | 6.26 m/s, 40° | - | - |
| 1778019079 | 26.11° C | 44% | 1009 hPa | 0 mm | 6.26 m/s, 41° | - | - |
* Rain latest hour (hover to see other rain measurements)
** Current wind speed in m/s (hover to see current wind gust speed)